Time;durP1;ratioP1;P1;durP2;ratioP2;P2;SDS_P1;SDS_P2;PMS_P1;PMS_P2;Temp;Humidity;BMP_temperature;BMP_pressure;BME280_temperature;BME280_humidity;BME280_pressure;Samples;Min_cycle;Max_cycle;Signal;HPM_P1;HPM_P2
2023/12/16 00:01:51;;;;;;;13.43;4.60;;;19.90;61.00;;;;;;5109707;28;20122;-60
2023/12/16 00:04:17;;;;;;;13.05;5.07;;;19.90;61.20;;;;;;5109714;28;20036;-59
2023/12/16 00:06:42;;;;;;;13.90;5.13;;;19.90;60.70;;;;;;5121585;22;20174;-60
2023/12/16 00:09:08;;;;;;;17.50;4.40;;;19.90;60.90;;;;;;5084540;28;20055;-60
2023/12/16 00:11:34;;;;;;;13.68;4.80;;;19.90;61.20;;;;;;5084421;28;20039;-60
2023/12/16 00:14:00;;;;;;;8.57;4.40;;;19.90;61.20;;;;;;5079583;28;20399;-55
2023/12/16 00:16:25;;;;;;;10.70;4.50;;;19.80;61.00;;;;;;5087795;28;20039;-58
2023/12/16 00:18:52;;;;;;;10.45;4.57;;;19.80;60.80;;;;;;5090235;28;20467;-57
2023/12/16 00:21:18;;;;;;;10.38;4.53;;;19.80;60.80;;;;;;5089245;28;20032;-57
2023/12/16 00:23:43;;;;;;;10.80;4.15;;;19.80;60.60;;;;;;5089409;28;20506;-58
2023/12/16 00:26:09;;;;;;;10.82;4.43;;;19.80;61.20;;;;;;5089687;28;20036;-57
2023/12/16 00:28:35;;;;;;;10.93;4.70;;;19.80;61.20;;;;;;5089096;28;20052;-58
2023/12/16 00:31:01;;;;;;;10.63;4.63;;;19.90;60.50;;;;;;5086921;28;20065;-57
2023/12/16 00:33:26;;;;;;;10.55;4.10;;;19.80;60.90;;;;;;5088425;28;20373;-56
2023/12/16 00:35:52;;;;;;;15.65;5.47;;;19.80;61.20;;;;;;5089869;28;20035;-58
2023/12/16 00:38:18;;;;;;;12.25;4.80;;;19.80;60.70;;;;;;5089671;28;20135;-58
2023/12/16 00:40:44;;;;;;;12.57;4.70;;;19.80;60.90;;;;;;5086966;28;20024;-57
2023/12/16 00:43:10;;;;;;;12.25;4.40;;;19.80;60.40;;;;;;5087379;28;20031;-59
2023/12/16 00:45:36;;;;;;;11.93;4.93;;;19.80;60.60;;;;;;5087351;28;20028;-59
2023/12/16 00:48:02;;;;;;;10.93;4.75;;;19.80;60.50;;;;;;5085942;28;20028;-59
2023/12/16 00:50:28;;;;;;;12.70;4.60;;;19.80;60.60;;;;;;5070174;28;20046;-59
2023/12/16 00:52:53;;;;;;;10.20;4.55;;;19.70;60.40;;;;;;5088676;28;20453;-59
2023/12/16 00:55:19;;;;;;;17.25;4.82;;;19.80;60.60;;;;;;5087020;28;20132;-58
2023/12/16 00:57:45;;;;;;;9.63;4.15;;;19.70;60.60;;;;;;5089014;28;20023;-59
2023/12/16 01:00:11;;;;;;;11.70;4.78;;;19.70;60.80;;;;;;5085386;28;20195;-59
2023/12/16 01:02:37;;;;;;;11.38;4.25;;;19.70;60.50;;;;;;5089295;28;20028;-59
2023/12/16 01:05:03;;;;;;;11.38;4.53;;;19.70;60.70;;;;;;5089036;28;20016;-57
2023/12/16 01:07:29;;;;;;;12.07;4.32;;;19.80;61.30;;;;;;5088690;28;20032;-59
2023/12/16 01:09:55;;;;;;;9.85;4.18;;;19.70;60.80;;;;;;5089178;28;20502;-59
2023/12/16 01:12:20;;;;;;;11.00;3.88;;;19.70;61.00;;;;;;5087984;28;20105;-60
2023/12/16 01:14:46;;;;;;;12.25;4.45;;;19.70;60.70;;;;;;5085348;28;20512;-59
2023/12/16 01:17:12;;;;;;;12.57;4.40;;;19.70;61.10;;;;;;5085324;28;20020;-59
2023/12/16 01:19:38;;;;;;;11.30;4.70;;;19.70;60.70;;;;;;5084048;28;20069;-59
2023/12/16 01:22:04;;;;;;;9.82;4.40;;;19.70;60.80;;;;;;5086208;28;20036;-58
2023/12/16 01:24:32;;;;;;;8.98;4.00;;;19.70;60.80;;;;;;5086092;28;20424;-59
2023/12/16 01:26:58;;;;;;;11.05;4.13;;;19.80;61.00;;;;;;5086830;28;20032;-59
2023/12/16 01:29:23;;;;;;;13.75;4.63;;;19.80;62.10;;;;;;5082092;28;20402;-60
2023/12/16 01:31:50;;;;;;;53.42;5.60;;;19.80;63.20;;;;;;5083526;28;20032;-61
2023/12/16 01:34:16;;;;;;;14.02;4.32;;;19.90;63.10;;;;;;5070536;28;20030;-60
2023/12/16 01:36:41;;;;;;;11.68;5.22;;;19.90;62.70;;;;;;5088103;28;20028;-60
2023/12/16 01:39:08;;;;;;;15.18;4.15;;;19.80;61.30;;;;;;5086822;28;20035;-59
2023/12/16 01:41:34;;;;;;;15.35;4.43;;;19.80;61.60;;;;;;5087457;28;20020;-60
2023/12/16 01:44:00;;;;;;;13.13;4.10;;;19.80;61.90;;;;;;5086842;28;20119;-60
2023/12/16 01:46:26;;;;;;;12.68;4.13;;;19.70;61.80;;;;;;5088918;28;20016;-60
2023/12/16 01:48:52;;;;;;;16.88;4.40;;;19.70;61.80;;;;;;5088279;28;20020;-60
2023/12/16 01:51:18;;;;;;;9.38;3.83;;;19.70;61.80;;;;;;5088839;28;20039;-60
2023/12/16 01:53:44;;;;;;;11.20;4.13;;;19.70;61.60;;;;;;5086180;28;20070;-59
2023/12/16 01:56:10;;;;;;;11.38;3.95;;;19.70;61.90;;;;;;5088896;28;20020;-59
2023/12/16 01:58:38;;;;;;;13.82;4.90;;;19.60;61.90;;;;;;5089050;28;20020;-60
2023/12/16 02:01:04;;;;;;;11.60;3.88;;;19.70;61.70;;;;;;5090417;28;20035;-60
2023/12/16 02:03:31;;;;;;;19.92;4.15;;;19.70;61.70;;;;;;5089455;28;20103;-60
2023/12/16 02:05:57;;;;;;;18.13;4.85;;;19.60;62.40;;;;;;5091887;28;20027;-56
2023/12/16 02:08:23;;;;;;;17.08;4.47;;;19.60;62.20;;;;;;5088320;28;20016;-60
2023/12/16 02:10:49;;;;;;;12.35;3.90;;;19.60;61.50;;;;;;5090999;28;20072;-59
2023/12/16 02:13:15;;;;;;;12.00;4.30;;;19.60;61.60;;;;;;5090833;28;20032;-60
2023/12/16 02:15:40;;;;;;;13.43;4.40;;;19.60;61.40;;;;;;5091081;28;20016;-59
2023/12/16 02:18:07;;;;;;;12.00;4.40;;;19.60;61.60;;;;;;5091023;28;20032;-60
2023/12/16 02:20:33;;;;;;;10.82;3.95;;;19.60;61.40;;;;;;5091324;28;20028;-57
2023/12/16 02:23:01;;;;;;;16.58;4.05;;;19.60;61.40;;;;;;5090620;28;20023;-55
2023/12/16 02:25:26;;;;;;;11.43;3.90;;;19.60;61.60;;;;;;5090856;28;20091;-59
2023/12/16 02:27:52;;;;;;;19.30;3.85;;;19.60;61.50;;;;;;5086853;28;20158;-56
2023/12/16 02:30:20;;;;;;;7.80;3.58;;;19.60;61.80;;;;;;5086896;28;20296;-59
2023/12/16 02:32:47;;;;;;;8.35;3.95;;;19.60;62.30;;;;;;5085763;28;20024;-58
2023/12/16 02:35:13;;;;;;;12.05;3.65;;;19.60;62.20;;;;;;5090009;28;20016;-59
2023/12/16 02:37:38;;;;;;;14.05;3.70;;;19.70;62.10;;;;;;5075236;28;20052;-59
2023/12/16 02:40:05;;;;;;;11.57;3.58;;;19.60;62.30;;;;;;5071074;28;20028;-59
2023/12/16 02:42:31;;;;;;;12.10;4.20;;;19.60;62.20;;;;;;5070571;28;20498;-56
2023/12/16 02:44:57;;;;;;;9.75;3.90;;;19.60;62.40;;;;;;5070806;28;20107;-59
2023/12/16 02:47:22;;;;;;;12.68;3.90;;;19.70;62.50;;;;;;5082235;28;20127;-60
2023/12/16 02:49:48;;;;;;;11.95;3.45;;;19.70;62.10;;;;;;5090102;28;20093;-59
2023/12/16 02:52:14;;;;;;;9.13;3.72;;;19.60;61.50;;;;;;5089416;28;20028;-59
2023/12/16 02:54:39;;;;;;;9.75;4.07;;;19.50;61.70;;;;;;5084031;28;20024;-59
2023/12/16 02:57:05;;;;;;;8.70;3.38;;;19.60;61.40;;;;;;5080767;28;20441;-60
2023/12/16 02:59:31;;;;;;;16.33;3.90;;;19.50;61.80;;;;;;5088534;28;20020;-58
2023/12/16 03:01:57;;;;;;;16.40;4.53;;;19.50;61.80;;;;;;5073874;28;20506;-58
2023/12/16 03:04:23;;;;;;;9.23;3.80;;;19.50;61.50;;;;;;5074194;28;20032;-59
2023/12/16 03:06:50;;;;;;;11.10;4.05;;;19.60;61.60;;;;;;5074010;28;20267;-59
2023/12/16 03:09:16;;;;;;;13.23;4.20;;;19.50;61.70;;;;;;5074131;28;20108;-60
2023/12/16 03:11:41;;;;;;;11.60;3.70;;;19.50;61.60;;;;;;5056032;28;20120;-54
2023/12/16 03:14:07;;;;;;;11.70;3.88;;;19.50;61.60;;;;;;5073797;28;20024;-57
2023/12/16 03:16:33;;;;;;;10.23;4.07;;;19.50;61.30;;;;;;5073833;28;20027;-59
2023/12/16 03:18:59;;;;;;;13.98;4.13;;;19.50;62.10;;;;;;5074019;28;20430;-59
2023/12/16 03:21:25;;;;;;;12.52;3.38;;;19.50;61.60;;;;;;5074032;28;20032;-59
2023/12/16 03:23:51;;;;;;;9.77;3.42;;;19.50;61.50;;;;;;5091818;28;20024;-60
2023/12/16 03:26:17;;;;;;;11.20;3.58;;;19.50;61.60;;;;;;5073312;28;20108;-57
2023/12/16 03:28:42;;;;;;;9.63;3.70;;;19.50;62.40;;;;;;5073816;28;20119;-58
2023/12/16 03:31:08;;;;;;;14.52;4.00;;;19.50;61.90;;;;;;5074020;28;20021;-59
2023/12/16 03:33:34;;;;;;;12.80;3.85;;;19.50;61.90;;;;;;5073242;28;20033;-61
2023/12/16 03:36:00;;;;;;;10.02;3.92;;;19.50;62.30;;;;;;5073617;28;20487;-61
2023/12/16 03:38:25;;;;;;;10.20;3.92;;;19.50;62.30;;;;;;5073504;28;20020;-60
2023/12/16 03:40:51;;;;;;;10.32;3.50;;;19.50;62.40;;;;;;5073636;28;20161;-57
2023/12/16 03:43:20;;;;;;;10.38;3.75;;;19.50;62.00;;;;;;5073171;28;20440;-60
2023/12/16 03:45:45;;;;;;;9.68;3.72;;;19.50;61.60;;;;;;5073323;28;20186;-57
2023/12/16 03:48:11;;;;;;;10.15;3.97;;;19.50;61.90;;;;;;5083386;28;20538;-58
2023/12/16 03:50:37;;;;;;;8.93;3.63;;;19.50;61.60;;;;;;5086833;28;20110;-58
2023/12/16 03:53:03;;;;;;;13.70;3.90;;;19.50;61.80;;;;;;5072859;28;20404;-58
2023/12/16 03:55:28;;;;;;;12.50;4.00;;;19.50;61.50;;;;;;5073409;28;20035;-59
2023/12/16 03:57:54;;;;;;;9.13;3.75;;;19.50;61.00;;;;;;5055245;28;20102;-58
2023/12/16 04:00:20;;;;;;;12.77;4.35;;;19.50;61.40;;;;;;5073148;28;20028;-58
2023/12/16 04:02:46;;;;;;;11.30;4.10;;;19.50;61.50;;;;;;5072753;28;20519;-59
2023/12/16 04:05:12;;;;;;;9.88;3.63;;;19.50;61.00;;;;;;5072997;28;20028;-58
2023/12/16 04:07:38;;;;;;;12.40;4.07;;;19.40;61.10;;;;;;5072655;28;20037;-58
2023/12/16 04:10:05;;;;;;;10.50;3.67;;;19.40;61.00;;;;;;5072854;28;20098;-58
2023/12/16 04:12:31;;;;;;;11.07;4.18;;;19.50;61.10;;;;;;5074644;28;20118;-55
2023/12/16 04:14:57;;;;;;;11.60;3.65;;;19.40;60.90;;;;;;5091757;28;20024;-57
2023/12/16 04:17:23;;;;;;;10.38;3.85;;;19.40;61.50;;;;;;5072743;28;20036;-58
2023/12/16 04:19:53;;;;;;;10.50;3.72;;;19.40;61.40;;;;;;5073157;28;20032;-57
2023/12/16 04:22:19;;;;;;;9.93;3.70;;;19.40;61.50;;;;;;5086034;28;20024;-58
2023/12/16 04:24:47;;;;;;;8.52;3.63;;;19.40;61.30;;;;;;5076810;28;20024;-60
2023/12/16 04:27:12;;;;;;;10.57;3.95;;;19.40;61.20;;;;;;5072981;28;20052;-57
2023/12/16 04:29:38;;;;;;;8.90;3.83;;;19.40;61.30;;;;;;5072833;28;20064;-58
2023/12/16 04:32:04;;;;;;;11.48;4.47;;;19.40;61.20;;;;;;5072134;28;20495;-59
2023/12/16 04:34:30;;;;;;;10.27;3.95;;;19.40;61.10;;;;;;5072410;28;20476;-57
2023/12/16 04:36:55;;;;;;;11.02;3.80;;;19.40;61.00;;;;;;5072308;28;20060;-58
2023/12/16 04:39:21;;;;;;;9.65;3.78;;;19.40;61.60;;;;;;5087027;28;20024;-58
2023/12/16 04:41:47;;;;;;;5.90;3.50;;;19.40;61.50;;;;;;5090160;28;20024;-59
2023/12/16 04:44:13;;;;;;;10.98;3.67;;;19.40;61.40;;;;;;5092262;28;20020;-60
2023/12/16 04:46:38;;;;;;;10.50;4.05;;;19.40;61.80;;;;;;5091338;28;20073;-57
2023/12/16 04:49:04;;;;;;;12.30;4.15;;;19.40;61.60;;;;;;5081991;28;20173;-57
2023/12/16 04:51:30;;;;;;;8.18;3.53;;;19.40;61.80;;;;;;5072058;28;20032;-60
2023/12/16 04:53:56;;;;;;;11.10;4.22;;;19.40;61.40;;;;;;5071840;28;20032;-60
2023/12/16 04:56:22;;;;;;;8.80;3.53;;;19.40;61.80;;;;;;5071899;28;20039;-59
2023/12/16 04:58:48;;;;;;;9.15;4.47;;;19.40;62.00;;;;;;5071871;28;20185;-58
2023/12/16 05:01:14;;;;;;;9.10;4.05;;;19.40;61.90;;;;;;5072116;28;20507;-59
2023/12/16 05:03:41;;;;;;;11.73;4.03;;;19.40;61.50;;;;;;5078212;28;20105;-61
2023/12/16 05:06:08;;;;;;;10.32;4.35;;;19.40;61.60;;;;;;5089619;28;20048;-59
2023/12/16 05:08:34;;;;;;;8.93;3.85;;;19.40;61.30;;;;;;5071703;28;20051;-60
2023/12/16 05:10:59;;;;;;;9.10;3.65;;;19.40;61.30;;;;;;5071801;28;20020;-60
2023/12/16 05:13:25;;;;;;;10.77;3.67;;;19.40;61.50;;;;;;5071365;28;20067;-58
2023/12/16 05:15:51;;;;;;;10.20;4.30;;;19.40;61.20;;;;;;5071733;28;20031;-58
2023/12/16 05:18:18;;;;;;;12.02;4.60;;;19.40;61.10;;;;;;5071134;28;20504;-60
2023/12/16 05:20:44;;;;;;;9.18;4.20;;;19.40;61.40;;;;;;5071846;28;20035;-59
2023/12/16 05:23:09;;;;;;;9.43;3.80;;;19.40;61.40;;;;;;5071655;28;20459;-59
2023/12/16 05:25:35;;;;;;;13.70;4.55;;;19.40;62.20;;;;;;5071627;28;20104;-57
2023/12/16 05:28:02;;;;;;;11.30;3.90;;;19.40;62.00;;;;;;5071482;28;20433;-60
2023/12/16 05:30:28;;;;;;;11.48;4.18;;;19.40;61.90;;;;;;5090513;28;20387;-58
2023/12/16 05:32:53;;;;;;;9.63;4.10;;;19.40;61.70;;;;;;5074263;28;20031;-61
2023/12/16 05:35:20;;;;;;;11.55;3.92;;;19.40;61.40;;;;;;5071536;28;20021;-58
2023/12/16 05:37:46;;;;;;;12.35;3.90;;;19.50;60.80;;;;;;5074247;28;20107;-61
2023/12/16 05:40:12;;;;;;;9.80;4.03;;;19.50;60.80;;;;;;5088600;28;20029;-59
2023/12/16 05:42:40;;;;;;;10.48;4.55;;;19.50;60.60;;;;;;5071127;28;20373;-58
2023/12/16 05:45:06;;;;;;;8.18;3.88;;;19.50;60.50;;;;;;5074361;28;20423;-56
2023/12/16 05:47:32;;;;;;;8.90;4.10;;;19.60;61.10;;;;;;5085665;28;20025;-58
2023/12/16 05:49:58;;;;;;;11.80;3.78;;;19.60;61.20;;;;;;5071267;28;20036;-58
2023/12/16 05:52:23;;;;;;;13.52;4.22;;;19.60;61.40;;;;;;5070940;28;20028;-57
2023/12/16 05:54:49;;;;;;;9.95;3.90;;;19.60;61.10;;;;;;5082227;28;20448;-58
2023/12/16 05:57:15;;;;;;;10.68;4.30;;;19.70;61.60;;;;;;5091130;28;20016;-58
2023/12/16 05:59:40;;;;;;;10.07;4.13;;;19.70;61.50;;;;;;5091530;28;20050;-58
2023/12/16 06:02:06;;;;;;;8.77;3.90;;;19.80;61.60;;;;;;5091222;28;20483;-58
2023/12/16 06:04:32;;;;;;;10.60;3.80;;;19.80;61.50;;;;;;5091636;28;20027;-56
2023/12/16 06:06:58;;;;;;;10.52;4.18;;;19.80;61.50;;;;;;5116939;22;20071;-61
2023/12/16 06:09:23;;;;;;;10.68;4.00;;;19.80;61.50;;;;;;5091064;28;20024;-61
2023/12/16 06:11:49;;;;;;;10.35;4.20;;;19.90;61.40;;;;;;5090434;28;20036;-61
2023/12/16 06:14:15;;;;;;;10.82;4.28;;;19.90;61.60;;;;;;5082739;28;20024;-61
2023/12/16 06:16:41;;;;;;;8.57;3.50;;;20.00;61.40;;;;;;5071685;28;20141;-62
2023/12/16 06:19:07;;;;;;;16.67;4.75;;;20.00;61.40;;;;;;5090217;28;20023;-62
2023/12/16 06:21:33;;;;;;;12.55;4.75;;;20.00;61.30;;;;;;5085454;28;20111;-62
2023/12/16 06:23:58;;;;;;;11.38;3.95;;;20.00;61.20;;;;;;5071066;28;20518;-61
2023/12/16 06:26:24;;;;;;;8.27;3.78;;;20.10;61.20;;;;;;5070914;28;20043;-61
2023/12/16 06:28:51;;;;;;;10.27;4.28;;;20.10;61.20;;;;;;5053109;28;20060;-61
2023/12/16 06:31:17;;;;;;;8.32;3.83;;;20.10;61.20;;;;;;5073540;28;20434;-62
2023/12/16 06:33:43;;;;;;;9.25;3.83;;;20.10;61.10;;;;;;5074489;28;20035;-62
2023/12/16 06:36:09;;;;;;;10.60;4.07;;;20.10;61.20;;;;;;5074726;28;20024;-59
2023/12/16 06:38:35;;;;;;;8.82;4.07;;;20.10;61.00;;;;;;5086108;28;20020;-62
2023/12/16 06:41:02;;;;;;;8.27;3.60;;;20.10;61.10;;;;;;5084915;28;20029;-62
2023/12/16 06:43:28;;;;;;;9.70;3.70;;;20.10;61.00;;;;;;5082112;28;20069;-62
2023/12/16 06:45:54;;;;;;;10.75;4.55;;;20.10;61.00;;;;;;5086069;28;20123;-61
2023/12/16 06:48:21;;;;;;;8.82;3.70;;;20.10;61.10;;;;;;5074371;28;20115;-62
2023/12/16 06:50:47;;;;;;;11.65;4.45;;;20.20;61.10;;;;;;5074458;28;20031;-61
2023/12/16 06:53:12;;;;;;;10.55;4.00;;;20.20;61.10;;;;;;5074117;28;20024;-62
2023/12/16 06:55:38;;;;;;;9.63;4.18;;;20.20;61.20;;;;;;5074419;28;20142;-60
2023/12/16 06:58:04;;;;;;;8.77;4.20;;;20.20;61.10;;;;;;5074233;28;20021;-60
2023/12/16 07:00:30;;;;;;;9.13;3.88;;;20.10;61.10;;;;;;5074279;28;20044;-60
2023/12/16 07:02:56;;;;;;;12.70;4.47;;;20.10;61.10;;;;;;5073917;28;20037;-60
2023/12/16 07:05:22;;;;;;;11.27;4.03;;;20.10;61.10;;;;;;5074349;28;20066;-59
2023/12/16 07:07:48;;;;;;;12.65;4.07;;;20.10;61.00;;;;;;5073775;28;20142;-60
2023/12/16 07:10:13;;;;;;;8.30;4.00;;;20.10;61.10;;;;;;5090943;28;20040;-60
2023/12/16 07:12:39;;;;;;;8.23;3.92;;;20.10;61.00;;;;;;5073632;28;20035;-60
2023/12/16 07:15:07;;;;;;;10.55;4.13;;;20.10;61.10;;;;;;5073999;28;20154;-60
2023/12/16 07:17:33;;;;;;;13.02;4.68;;;20.10;61.00;;;;;;5073779;28;20032;-60
2023/12/16 07:19:59;;;;;;;9.32;4.28;;;20.20;61.20;;;;;;5073931;28;20020;-57
2023/12/16 07:22:25;;;;;;;11.30;4.53;;;20.20;61.00;;;;;;5073593;28;20664;-60
2023/12/16 07:24:51;;;;;;;10.90;4.10;;;20.20;61.10;;;;;;5055456;28;20028;-60
2023/12/16 07:27:17;;;;;;;10.10;3.88;;;20.20;61.00;;;;;;5073592;28;20111;-60
2023/12/16 07:29:42;;;;;;;9.75;4.03;;;20.20;61.00;;;;;;5076546;28;20487;-60
2023/12/16 07:32:08;;;;;;;11.15;4.38;;;20.20;61.00;;;;;;5090409;28;20024;-60
2023/12/16 07:34:34;;;;;;;8.50;4.10;;;20.20;60.90;;;;;;5055133;28;20025;-60
2023/12/16 07:37:00;;;;;;;12.15;4.28;;;20.20;61.00;;;;;;5072707;28;20032;-60
2023/12/16 07:39:25;;;;;;;11.48;4.22;;;20.20;60.90;;;;;;5072553;28;20412;-60
2023/12/16 07:41:51;;;;;;;9.95;4.32;;;20.20;61.00;;;;;;5072265;28;20642;-60
2023/12/16 07:44:17;;;;;;;10.43;4.25;;;20.30;60.90;;;;;;5073638;28;20495;-60
2023/12/16 07:46:43;;;;;;;10.77;3.97;;;20.20;60.80;;;;;;5073546;28;20028;-60
2023/12/16 07:49:08;;;;;;;10.00;4.43;;;20.30;60.80;;;;;;5073350;28;20035;-60
2023/12/16 07:51:36;;;;;;;9.93;4.43;;;20.30;61.00;;;;;;5073241;28;20082;-60
2023/12/16 07:54:02;;;;;;;14.05;4.50;;;20.30;60.90;;;;;;5072820;28;20020;-60
2023/12/16 07:56:28;;;;;;;8.18;4.22;;;20.30;60.90;;;;;;5083733;28;20027;-62
2023/12/16 07:58:54;;;;;;;9.85;5.03;;;20.20;60.80;;;;;;5093227;28;20392;-62
2023/12/16 08:01:20;;;;;;;9.95;4.30;;;20.20;60.80;;;;;;5073098;28;20032;-62
2023/12/16 08:03:47;;;;;;;9.43;4.57;;;20.30;60.90;;;;;;5072724;28;20783;-62
2023/12/16 08:06:17;;;;;;;10.00;4.45;;;20.30;60.90;;;;;;5055232;28;20020;-62
2023/12/16 08:08:43;;;;;;;8.68;4.07;;;20.30;60.90;;;;;;5072933;28;20587;-62
2023/12/16 08:11:09;;;;;;;12.70;5.30;;;20.30;61.00;;;;;;5072840;28;20103;-62
2023/12/16 08:13:36;;;;;;;8.57;4.22;;;20.30;60.80;;;;;;5072648;28;20021;-62
2023/12/16 08:16:04;;;;;;;11.57;4.68;;;20.20;60.80;;;;;;5055049;28;20029;-62
2023/12/16 08:18:31;;;;;;;11.27;4.45;;;20.30;61.40;;;;;;5072340;28;20082;-62
2023/12/16 08:20:57;;;;;;;9.88;4.20;;;20.30;61.10;;;;;;5091684;28;20033;-62
2023/12/16 08:23:23;;;;;;;9.40;4.60;;;20.30;60.90;;;;;;5080204;28;20067;-62
2023/12/16 08:25:49;;;;;;;14.30;5.20;;;20.30;61.00;;;;;;5081836;28;20020;-62
2023/12/16 08:28:16;;;;;;;12.93;4.82;;;20.30;60.90;;;;;;5081492;28;20412;-62
2023/12/16 08:30:44;;;;;;;11.05;4.65;;;20.30;60.90;;;;;;5091815;28;20028;-62
2023/12/16 08:33:09;;;;;;;14.30;5.50;;;20.30;60.80;;;;;;5073164;28;20033;-62
2023/12/16 08:35:36;;;;;;;13.02;5.43;;;20.30;60.90;;;;;;5090591;28;20495;-62
2023/12/16 08:38:03;;;;;;;10.63;4.97;;;20.30;60.90;;;;;;5082917;28;20031;-62
2023/12/16 08:40:29;;;;;;;10.52;4.90;;;20.30;61.00;;;;;;5091246;28;20020;-61
2023/12/16 08:42:55;;;;;;;12.95;5.05;;;20.30;60.90;;;;;;5083880;28;20035;-62
2023/12/16 08:45:20;;;;;;;11.13;5.07;;;20.30;60.90;;;;;;5088756;28;20028;-60
2023/12/16 08:47:46;;;;;;;10.85;5.47;;;20.30;60.90;;;;;;5054259;28;20028;-60
2023/12/16 08:50:12;;;;;;;11.80;5.43;;;20.30;60.90;;;;;;5072179;28;20029;-60
2023/12/16 08:52:38;;;;;;;9.95;5.30;;;20.30;60.90;;;;;;5071018;28;20124;-59
2023/12/16 08:55:04;;;;;;;12.82;5.50;;;20.30;60.90;;;;;;5071980;28;20093;-60
2023/12/16 08:57:31;;;;;;;18.13;5.55;;;20.20;60.80;;;;;;5071944;28;20025;-62
2023/12/16 08:59:57;;;;;;;12.30;5.50;;;20.20;61.10;;;;;;5072013;28;20028;-62
2023/12/16 09:02:23;;;;;;;9.25;4.90;;;20.30;61.20;;;;;;5089719;28;20049;-62
2023/12/16 09:04:50;;;;;;;10.35;5.10;;;20.30;61.30;;;;;;5091678;28;20024;-62
2023/12/16 09:07:16;;;;;;;11.20;5.50;;;20.20;61.20;;;;;;5091610;28;20570;-62
2023/12/16 09:09:44;;;;;;;13.73;5.78;;;20.30;61.10;;;;;;5091845;28;20103;-62
2023/12/16 09:12:10;;;;;;;13.77;5.70;;;20.20;61.10;;;;;;5091335;28;20036;-62
2023/12/16 09:14:37;;;;;;;10.68;5.53;;;20.30;61.10;;;;;;5091786;28;20096;-62
2023/12/16 09:17:03;;;;;;;13.32;5.75;;;20.30;61.20;;;;;;5091586;28;20028;-62
2023/12/16 09:19:29;;;;;;;11.63;5.70;;;20.30;61.30;;;;;;5091611;28;20031;-62
2023/12/16 09:21:55;;;;;;;14.82;5.97;;;20.30;62.10;;;;;;5091508;28;20399;-56
2023/12/16 09:24:20;;;;;;;15.75;6.13;;;20.30;62.90;;;;;;5091584;28;20380;-61
2023/12/16 09:26:47;;;;;;;13.50;6.03;;;20.50;63.80;;;;;;5070135;28;20034;-62
2023/12/16 09:29:13;;;;;;;21.58;6.57;;;20.50;64.90;;;;;;5090323;28;20032;-62
2023/12/16 09:31:39;;;;;;;19.08;5.90;;;20.50;67.10;;;;;;5091443;28;20035;-60
2023/12/16 09:34:05;;;;;;;17.50;6.97;;;20.60;66.20;;;;;;5091115;28;20027;-60
2023/12/16 09:36:31;;;;;;;50.72;7.43;;;20.60;68.40;;;;;;5052845;28;20021;-61
2023/12/16 09:38:57;;;;;;;39.28;6.97;;;20.60;66.40;;;;;;5088200;28;20028;-58
2023/12/16 09:41:25;;;;;;;18.83;6.10;;;20.70;66.70;;;;;;5073544;28;20450;-59
2023/12/16 09:43:53;;;;;;;17.15;6.65;;;20.70;65.80;;;;;;5073234;28;20020;-59
2023/12/16 09:46:20;;;;;;;32.45;6.13;;;20.70;64.30;;;;;;5089208;28;20028;-56
2023/12/16 09:48:47;;;;;;;24.33;6.28;;;20.70;64.90;;;;;;5090183;28;20456;-54
2023/12/16 09:51:13;;;;;;;21.63;5.75;;;20.70;64.50;;;;;;5089384;28;20449;-57
2023/12/16 09:53:39;;;;;;;20.05;5.72;;;20.70;64.40;;;;;;5090938;28;20069;-62
2023/12/16 09:56:06;;;;;;;20.80;5.88;;;20.70;63.40;;;;;;5091190;28;20027;-61
2023/12/16 09:58:34;;;;;;;20.77;6.13;;;20.60;63.60;;;;;;5081056;28;20425;-61
2023/12/16 10:01:02;;;;;;;16.15;5.45;;;20.60;63.40;;;;;;5091114;28;20028;-59
2023/12/16 10:03:29;;;;;;;14.77;5.35;;;20.60;63.50;;;;;;5091192;28;20020;-61
2023/12/16 10:05:55;;;;;;;20.98;5.57;;;20.60;63.40;;;;;;5094230;28;20028;-59
2023/12/16 10:08:21;;;;;;;18.88;6.70;;;20.60;63.30;;;;;;5077048;28;20075;-60
2023/12/16 10:10:47;;;;;;;15.48;5.55;;;20.50;63.20;;;;;;5082390;28;20066;-60
2023/12/16 10:13:12;;;;;;;16.77;5.47;;;20.50;63.10;;;;;;5092644;28;20051;-58
2023/12/16 10:15:38;;;;;;;16.98;6.00;;;20.50;63.40;;;;;;5094094;28;20016;-59
2023/12/16 10:18:04;;;;;;;14.10;5.40;;;20.50;63.10;;;;;;5094418;28;20111;-58
2023/12/16 10:20:30;;;;;;;13.60;5.10;;;20.50;63.20;;;;;;5094888;28;20356;-60
2023/12/16 10:23:00;;;;;;;16.48;6.47;;;20.50;63.20;;;;;;5086390;28;20161;-48
2023/12/16 10:25:26;;;;;;;14.85;5.18;;;20.50;63.30;;;;;;5084009;28;20099;-57
2023/12/16 10:28:00;;;;;;;17.50;6.05;;;20.60;63.50;;;;;;5093733;28;20112;-56
2023/12/16 10:30:26;;;;;;;16.63;6.22;;;20.60;63.80;;;;;;5089593;28;20024;-58
2023/12/16 10:32:55;;;;;;;22.15;6.63;;;20.60;63.30;;;;;;5094547;28;20027;-57
2023/12/16 10:35:23;;;;;;;26.02;7.07;;;20.60;64.70;;;;;;5094018;28;20021;-57
2023/12/16 10:37:52;;;;;;;21.92;7.38;;;20.60;66.30;;;;;;5076868;28;20124;-56
2023/12/16 10:40:18;;;;;;;20.42;6.45;;;20.60;64.20;;;;;;5094062;28;20466;-58
2023/12/16 10:42:44;;;;;;;16.85;6.47;;;20.60;64.30;;;;;;5093367;28;20103;-58
2023/12/16 10:45:11;;;;;;;23.60;7.15;;;20.60;64.90;;;;;;5092703;28;20410;-58
2023/12/16 10:47:37;;;;;;;86.53;57.85;;;20.60;65.00;;;;;;5074645;28;20468;-57
2023/12/16 10:50:04;;;;;;;303.08;209.77;;;20.60;64.90;;;;;;5074550;28;20150;-58
2023/12/16 10:52:41;;;;;;;167.13;110.07;;;20.50;65.40;;;;;;5074024;28;20159;-59
2023/12/16 10:55:16;;;;;;;141.85;93.10;;;20.50;64.50;;;;;;5074401;28;20045;-59
2023/12/16 10:57:47;;;;;;;95.60;58.25;;;20.50;64.70;;;;;;5077886;28;20023;-58
2023/12/16 11:00:20;;;;;;;82.15;52.20;;;20.50;64.10;;;;;;5094243;28;20024;-58
2023/12/16 11:03:07;;;;;;;75.60;49.75;;;20.50;64.10;;;;;;5094171;28;20030;-57
2023/12/16 11:05:42;;;;;;;80.75;54.70;;;20.50;64.20;;;;;;5080430;28;20052;-58
2023/12/16 11:08:08;;;;;;;79.55;50.83;;;20.50;62.70;;;;;;5090603;28;20082;-58
2023/12/16 11:10:35;;;;;;;91.13;59.10;;;20.50;63.50;;;;;;5073978;28;20043;-59
2023/12/16 11:13:02;;;;;;;85.10;55.63;;;20.50;63.30;;;;;;5073849;28;20107;-58
2023/12/16 11:15:33;;;;;;;82.82;53.20;;;20.50;63.60;;;;;;5073360;28;20043;-58
2023/12/16 11:18:19;;;;;;;88.07;54.15;;;20.60;64.10;;;;;;5074020;28;20020;-56
2023/12/16 11:20:53;;;;;;;77.25;51.00;;;20.60;64.10;;;;;;5073921;28;20035;-58
2023/12/16 11:23:19;;;;;;;82.35;50.72;;;20.60;64.00;;;;;;5073586;28;20032;-56
2023/12/16 11:25:47;;;;;;;81.57;50.03;;;20.60;64.10;;;;;;5073980;28;20020;-56
2023/12/16 11:28:14;;;;;;;74.30;48.22;;;20.60;64.10;;;;;;5073786;28;20483;-59
2023/12/16 11:30:41;;;;;;;78.30;47.85;;;20.60;64.20;;;;;;5083527;28;20465;-59
2023/12/16 11:33:07;;;;;;;72.40;45.63;;;20.60;63.60;;;;;;5093123;28;20032;-58
2023/12/16 11:35:36;;;;;;;68.85;45.92;;;20.60;63.30;;;;;;5093778;28;20012;-58
2023/12/16 11:38:08;;;;;;;71.20;46.65;;;20.60;63.60;;;;;;5093445;28;20123;-59
2023/12/16 11:40:41;;;;;;;79.13;46.67;;;20.60;63.60;;;;;;5093610;28;20024;-58
2023/12/16 11:43:07;;;;;;;76.22;45.22;;;20.50;63.60;;;;;;5093206;28;20070;-57
2023/12/16 11:45:42;;;;;;;71.85;44.75;;;20.50;63.70;;;;;;5091323;28;20031;-55
2023/12/16 11:48:15;;;;;;;71.78;43.67;;;20.50;63.70;;;;;;5083631;28;20480;-54
2023/12/16 11:50:44;;;;;;;68.03;43.50;;;20.50;63.80;;;;;;5075258;28;20036;-56
2023/12/16 11:53:12;;;;;;;64.30;42.35;;;20.50;63.80;;;;;;5092888;28;20040;-55
2023/12/16 11:55:39;;;;;;;71.65;43.13;;;20.50;63.80;;;;;;5093453;28;20471;-53
2023/12/16 11:58:05;;;;;;;66.05;42.67;;;20.50;63.80;;;;;;5092111;28;20071;-56
2023/12/16 12:00:31;;;;;;;65.88;40.85;;;20.40;63.70;;;;;;5079858;28;20059;-58
2023/12/16 12:03:00;;;;;;;69.40;41.60;;;20.40;63.60;;;;;;5091564;28;20442;-53
2023/12/16 12:05:27;;;;;;;65.07;39.13;;;20.50;63.80;;;;;;5086941;28;20016;-58
2023/12/16 12:07:52;;;;;;;61.92;39.97;;;20.40;63.70;;;;;;5106378;22;20040;-63
2023/12/16 12:10:18;;;;;;;66.03;42.38;;;20.40;63.70;;;;;;5071640;28;20414;-63
2023/12/16 12:12:44;;;;;;;64.85;37.95;;;20.40;63.60;;;;;;5082616;28;20162;-63
2023/12/16 12:15:10;;;;;;;65.35;39.25;;;20.40;63.30;;;;;;5079636;28;20020;-62
2023/12/16 12:17:36;;;;;;;59.50;37.28;;;20.40;63.50;;;;;;5060536;28;20016;-62
2023/12/16 12:20:04;;;;;;;60.47;38.50;;;20.40;63.70;;;;;;5053005;28;20031;-63
2023/12/16 12:22:33;;;;;;;61.65;36.65;;;20.40;63.50;;;;;;5072321;28;20024;-63
2023/12/16 12:24:59;;;;;;;55.30;35.65;;;20.40;63.40;;;;;;5072292;28;20032;-63
2023/12/16 12:27:29;;;;;;;56.83;35.13;;;20.40;63.50;;;;;;5077754;28;20021;-61
2023/12/16 12:30:04;;;;;;;58.33;34.15;;;20.40;63.50;;;;;;5080755;28;20145;-63
2023/12/16 12:32:31;;;;;;;58.50;32.25;;;20.40;63.10;;;;;;5077195;28;20028;-63
2023/12/16 12:35:05;;;;;;;54.20;35.10;;;20.30;63.00;;;;;;5092548;28;20031;-62